sensor_id;sensor_type;location;lat;lon;timestamp;P1;durP1;ratioP1;P2;durP2;ratioP2
3696;SDS011;60662;48.810;8.872;2023-05-02T08:35:18;336.25;;;147.23;;
3696;SDS011;60662;48.810;8.872;2023-05-02T08:36:20;349.45;;;208.98;;
3696;SDS011;60662;48.810;8.872;2023-05-02T08:37:21;326.10;;;146.68;;
3696;SDS011;60662;48.810;8.872;2023-05-02T08:38:23;365.02;;;224.57;;
3696;SDS011;60662;48.810;8.872;2023-05-02T08:39:24;305.40;;;148.80;;
3696;SDS011;60662;48.810;8.872;2023-05-02T08:40:26;385.15;;;262.35;;
3696;SDS011;60662;48.810;8.872;2023-05-02T08:41:41;333.50;;;148.63;;
3696;SDS011;60662;48.810;8.872;2023-05-02T08:42:43;368.95;;;200.52;;
3696;SDS011;60662;48.810;8.872;2023-05-02T08:43:45;311.50;;;121.22;;
3696;SDS011;60662;48.810;8.872;2023-05-02T08:44:47;283.83;;;99.82;;
3696;SDS011;60662;48.810;8.872;2023-05-02T08:45:49;277.48;;;83.90;;
3696;SDS011;60662;48.810;8.872;2023-05-02T08:46:54;273.33;;;81.97;;
3696;SDS011;60662;48.810;8.872;2023-05-02T08:47:57;305.55;;;137.60;;
3696;SDS011;60662;48.810;8.872;2023-05-02T08:49:00;302.40;;;135.60;;
3696;SDS011;60662;48.810;8.872;2023-05-02T08:50:04;304.50;;;154.15;;
3696;SDS011;60662;48.810;8.872;2023-05-02T08:51:10;280.48;;;127.28;;
3696;SDS011;60662;48.810;8.872;2023-05-02T08:52:13;294.88;;;137.48;;
3696;SDS011;60662;48.810;8.872;2023-05-02T08:53:17;255.85;;;80.28;;
3696;SDS011;60662;48.810;8.872;2023-05-02T08:54:19;291.95;;;146.68;;
3696;SDS011;60662;48.810;8.872;2023-05-02T08:55:21;279.52;;;137.02;;
3696;SDS011;60662;48.810;8.872;2023-05-02T08:56:28;253.52;;;64.47;;
3696;SDS011;60662;48.810;8.872;2023-05-02T08:57:29;247.77;;;82.10;;
3696;SDS011;60662;48.810;8.872;2023-05-02T08:58:32;220.52;;;47.55;;
3696;SDS011;60662;48.810;8.872;2023-05-02T08:59:33;259.48;;;141.75;;
3696;SDS011;60662;48.810;8.872;2023-05-02T09:00:39;228.95;;;124.20;;
3696;SDS011;60662;48.810;8.872;2023-05-02T09:01:43;216.93;;;105.75;;
3696;SDS011;60662;48.810;8.872;2023-05-02T09:04:11;165.80;;;47.22;;
3696;SDS011;60662;48.810;8.872;2023-05-02T09:05:14;169.55;;;61.72;;
3696;SDS011;60662;48.810;8.872;2023-05-02T09:06:20;179.27;;;74.95;;
3696;SDS011;60662;48.810;8.872;2023-05-02T09:07:23;192.27;;;97.80;;
3696;SDS011;60662;48.810;8.872;2023-05-02T09:08:24;83.03;;;37.15;;
3696;SDS011;60662;48.810;8.872;2023-05-02T09:09:26;59.35;;;26.98;;
3696;SDS011;60662;48.810;8.872;2023-05-02T09:10:29;64.20;;;27.92;;
3696;SDS011;60662;48.810;8.872;2023-05-02T09:11:31;51.63;;;27.05;;
3696;SDS011;60662;48.810;8.872;2023-05-02T09:12:32;41.38;;;26.73;;
3696;SDS011;60662;48.810;8.872;2023-05-02T09:13:40;45.53;;;26.63;;
3696;SDS011;60662;48.810;8.872;2023-05-02T09:14:43;34.95;;;23.35;;
3696;SDS011;60662;48.810;8.872;2023-05-02T09:15:52;37.08;;;24.58;;
3696;SDS011;60662;48.810;8.872;2023-05-02T09:16:58;33.13;;;22.58;;
3696;SDS011;60662;48.810;8.872;2023-05-02T09:18:01;34.30;;;24.85;;
3696;SDS011;60662;48.810;8.872;2023-05-02T09:19:02;34.47;;;24.88;;
3696;SDS011;60662;48.810;8.872;2023-05-02T09:20:04;37.40;;;24.20;;
3696;SDS011;60662;48.810;8.872;2023-05-02T09:21:09;40.97;;;25.70;;
3696;SDS011;60662;48.810;8.872;2023-05-02T09:22:21;33.92;;;24.83;;
3696;SDS011;60662;48.810;8.872;2023-05-02T09:23:36;45.25;;;26.90;;
3696;SDS011;60662;48.810;8.872;2023-05-02T09:24:53;37.10;;;25.45;;
3696;SDS011;60662;48.810;8.872;2023-05-02T09:25:55;37.92;;;24.60;;
3696;SDS011;60662;48.810;8.872;2023-05-02T09:27:58;34.08;;;23.60;;
3696;SDS011;60662;48.810;8.872;2023-05-02T09:29:02;36.40;;;23.73;;
3696;SDS011;60662;48.810;8.872;2023-05-02T09:30:17;39.50;;;24.75;;
3696;SDS011;60662;48.810;8.872;2023-05-02T09:31:31;36.90;;;23.35;;
3696;SDS011;60662;48.810;8.872;2023-05-02T09:32:56;33.25;;;20.83;;
3696;SDS011;60662;48.810;8.872;2023-05-02T09:34:06;35.03;;;22.15;;
3696;SDS011;60662;48.810;8.872;2023-05-02T09:35:11;35.05;;;22.65;;
3696;SDS011;60662;48.810;8.872;2023-05-02T09:36:14;37.60;;;21.85;;
3696;SDS011;60662;48.810;8.872;2023-05-02T09:37:35;31.30;;;19.98;;
3696;SDS011;60662;48.810;8.872;2023-05-02T09:38:37;29.25;;;20.83;;
3696;SDS011;60662;48.810;8.872;2023-05-02T09:39:38;30.40;;;20.42;;
3696;SDS011;60662;48.810;8.872;2023-05-02T09:40:47;34.30;;;21.58;;
3696;SDS011;60662;48.810;8.872;2023-05-02T09:41:54;34.95;;;20.40;;
3696;SDS011;60662;48.810;8.872;2023-05-02T09:42:57;33.85;;;21.70;;
3696;SDS011;60662;48.810;8.872;2023-05-02T09:43:58;36.38;;;23.27;;
3696;SDS011;60662;48.810;8.872;2023-05-02T09:44:59;33.25;;;22.20;;
3696;SDS011;60662;48.810;8.872;2023-05-02T09:46:08;27.90;;;20.38;;
3696;SDS011;60662;48.810;8.872;2023-05-02T09:47:10;31.45;;;22.63;;
3696;SDS011;60662;48.810;8.872;2023-05-02T09:48:27;31.85;;;22.02;;
3696;SDS011;60662;48.810;8.872;2023-05-02T09:50:40;34.25;;;22.33;;
3696;SDS011;60662;48.810;8.872;2023-05-02T09:51:41;32.45;;;23.40;;
3696;SDS011;60662;48.810;8.872;2023-05-02T09:52:59;36.03;;;22.88;;
3696;SDS011;60662;48.810;8.872;2023-05-02T09:54:01;35.60;;;22.70;;
3696;SDS011;60662;48.810;8.872;2023-05-02T09:55:17;36.88;;;23.15;;
3696;SDS011;60662;48.810;8.872;2023-05-02T09:56:21;52.25;;;23.65;;
3696;SDS011;60662;48.810;8.872;2023-05-02T09:57:40;32.70;;;23.10;;
3696;SDS011;60662;48.810;8.872;2023-05-02T09:58:42;43.03;;;24.00;;
3696;SDS011;60662;48.810;8.872;2023-05-02T09:59:53;35.60;;;22.58;;
3696;SDS011;60662;48.810;8.872;2023-05-02T10:00:56;35.28;;;24.60;;
3696;SDS011;60662;48.810;8.872;2023-05-02T10:01:59;29.15;;;21.85;;
3696;SDS011;60662;48.810;8.872;2023-05-02T10:03:03;39.25;;;22.00;;
3696;SDS011;60662;48.810;8.872;2023-05-02T10:04:10;33.15;;;20.90;;
3696;SDS011;60662;48.810;8.872;2023-05-02T10:05:17;39.05;;;22.08;;
3696;SDS011;60662;48.810;8.872;2023-05-02T10:06:20;32.20;;;22.67;;
3696;SDS011;60662;48.810;8.872;2023-05-02T10:07:22;32.80;;;21.80;;
3696;SDS011;60662;48.810;8.872;2023-05-02T10:08:24;30.45;;;21.30;;
3696;SDS011;60662;48.810;8.872;2023-05-02T10:09:29;27.70;;;21.77;;
3696;SDS011;60662;48.810;8.872;2023-05-02T10:10:36;36.45;;;22.88;;
3696;SDS011;60662;48.810;8.872;2023-05-02T10:11:41;24.90;;;19.17;;
3696;SDS011;60662;48.810;8.872;2023-05-02T10:12:44;35.17;;;20.58;;
3696;SDS011;60662;48.810;8.872;2023-05-02T10:13:48;31.88;;;20.38;;
3696;SDS011;60662;48.810;8.872;2023-05-02T10:14:50;32.22;;;18.25;;
3696;SDS011;60662;48.810;8.872;2023-05-02T10:16:02;25.58;;;17.60;;
3696;SDS011;60662;48.810;8.872;2023-05-02T10:17:11;31.05;;;19.42;;
3696;SDS011;60662;48.810;8.872;2023-05-02T10:18:25;24.08;;;18.33;;
3696;SDS011;60662;48.810;8.872;2023-05-02T10:20:03;30.40;;;18.60;;
3696;SDS011;60662;48.810;8.872;2023-05-02T10:21:09;27.42;;;20.27;;
3696;SDS011;60662;48.810;8.872;2023-05-02T10:22:12;31.20;;;20.80;;
3696;SDS011;60662;48.810;8.872;2023-05-02T10:23:14;28.92;;;21.30;;
3696;SDS011;60662;48.810;8.872;2023-05-02T10:24:17;25.98;;;19.70;;
3696;SDS011;60662;48.810;8.872;2023-05-02T10:25:18;31.45;;;20.45;;
3696;SDS011;60662;48.810;8.872;2023-05-02T10:26:21;31.85;;;20.65;;
3696;SDS011;60662;48.810;8.872;2023-05-02T10:27:23;29.35;;;20.30;;
3696;SDS011;60662;48.810;8.872;2023-05-02T10:28:26;30.60;;;21.45;;
3696;SDS011;60662;48.810;8.872;2023-05-02T10:29:28;34.63;;;21.83;;
3696;SDS011;60662;48.810;8.872;2023-05-02T10:30:31;30.80;;;23.25;;
3696;SDS011;60662;48.810;8.872;2023-05-02T10:31:34;37.78;;;24.77;;
3696;SDS011;60662;48.810;8.872;2023-05-02T10:32:37;27.20;;;20.55;;
3696;SDS011;60662;48.810;8.872;2023-05-02T10:33:40;31.55;;;21.15;;
3696;SDS011;60662;48.810;8.872;2023-05-02T10:34:42;33.15;;;22.20;;
3696;SDS011;60662;48.810;8.872;2023-05-02T10:35:44;32.22;;;21.98;;
3696;SDS011;60662;48.810;8.872;2023-05-02T10:36:48;43.22;;;22.23;;
3696;SDS011;60662;48.810;8.872;2023-05-02T10:37:50;32.83;;;21.83;;
3696;SDS011;60662;48.810;8.872;2023-05-02T10:38:53;32.45;;;21.23;;
3696;SDS011;60662;48.810;8.872;2023-05-02T10:39:55;37.67;;;21.55;;
3696;SDS011;60662;48.810;8.872;2023-05-02T10:40:57;32.33;;;21.25;;
3696;SDS011;60662;48.810;8.872;2023-05-02T10:42:02;30.58;;;20.08;;
3696;SDS011;60662;48.810;8.872;2023-05-02T10:43:06;31.98;;;21.55;;
3696;SDS011;60662;48.810;8.872;2023-05-02T10:44:08;33.50;;;22.60;;
3696;SDS011;60662;48.810;8.872;2023-05-02T10:46:33;32.67;;;20.80;;
3696;SDS011;60662;48.810;8.872;2023-05-02T10:47:38;33.05;;;21.35;;
3696;SDS011;60662;48.810;8.872;2023-05-02T10:48:40;37.33;;;21.48;;
3696;SDS011;60662;48.810;8.872;2023-05-02T10:49:52;29.33;;;21.50;;
3696;SDS011;60662;48.810;8.872;2023-05-02T10:50:55;28.92;;;20.98;;
3696;SDS011;60662;48.810;8.872;2023-05-02T10:51:58;25.52;;;18.58;;
3696;SDS011;60662;48.810;8.872;2023-05-02T10:54:24;27.45;;;20.45;;
3696;SDS011;60662;48.810;8.872;2023-05-02T10:55:26;30.17;;;20.02;;
3696;SDS011;60662;48.810;8.872;2023-05-02T10:56:27;36.38;;;21.25;;
3696;SDS011;60662;48.810;8.872;2023-05-02T10:57:29;28.92;;;20.15;;
3696;SDS011;60662;48.810;8.872;2023-05-02T10:58:31;26.58;;;19.02;;
3696;SDS011;60662;48.810;8.872;2023-05-02T10:59:36;27.67;;;19.90;;
3696;SDS011;60662;48.810;8.872;2023-05-02T11:00:43;29.42;;;20.48;;
3696;SDS011;60662;48.810;8.872;2023-05-02T11:01:45;34.40;;;21.17;;
3696;SDS011;60662;48.810;8.872;2023-05-02T11:02:46;26.10;;;17.52;;
3696;SDS011;60662;48.810;8.872;2023-05-02T11:03:52;27.20;;;19.75;;
3696;SDS011;60662;48.810;8.872;2023-05-02T11:05:07;25.40;;;20.38;;
3696;SDS011;60662;48.810;8.872;2023-05-02T11:06:09;28.73;;;19.80;;
3696;SDS011;60662;48.810;8.872;2023-05-02T11:10:24;38.15;;;20.35;;
3696;SDS011;60662;48.810;8.872;2023-05-02T11:11:36;28.90;;;20.08;;
3696;SDS011;60662;48.810;8.872;2023-05-02T11:12:43;29.27;;;21.10;;
3696;SDS011;60662;48.810;8.872;2023-05-02T11:13:49;27.25;;;20.35;;
3696;SDS011;60662;48.810;8.872;2023-05-02T11:14:51;31.40;;;19.35;;
3696;SDS011;60662;48.810;8.872;2023-05-02T11:15:53;28.95;;;19.58;;
3696;SDS011;60662;48.810;8.872;2023-05-02T11:18:01;34.75;;;22.33;;
3696;SDS011;60662;48.810;8.872;2023-05-02T11:19:03;28.52;;;20.02;;
3696;SDS011;60662;48.810;8.872;2023-05-02T11:21:25;29.13;;;19.52;;
3696;SDS011;60662;48.810;8.872;2023-05-02T11:22:31;30.42;;;20.77;;
3696;SDS011;60662;48.810;8.872;2023-05-02T11:23:34;27.70;;;19.48;;
3696;SDS011;60662;48.810;8.872;2023-05-02T11:24:40;28.20;;;19.48;;
3696;SDS011;60662;48.810;8.872;2023-05-02T11:25:45;29.65;;;19.80;;
3696;SDS011;60662;48.810;8.872;2023-05-02T11:26:47;29.75;;;21.13;;
3696;SDS011;60662;48.810;8.872;2023-05-02T11:27:49;29.92;;;20.23;;
3696;SDS011;60662;48.810;8.872;2023-05-02T11:28:51;33.03;;;20.60;;
3696;SDS011;60662;48.810;8.872;2023-05-02T11:29:56;28.35;;;21.60;;
3696;SDS011;60662;48.810;8.872;2023-05-02T11:30:59;31.55;;;22.55;;
3696;SDS011;60662;48.810;8.872;2023-05-02T11:32:00;33.85;;;23.80;;
3696;SDS011;60662;48.810;8.872;2023-05-02T11:34:06;34.38;;;23.48;;
3696;SDS011;60662;48.810;8.872;2023-05-02T11:35:12;31.83;;;21.65;;
3696;SDS011;60662;48.810;8.872;2023-05-02T11:36:26;35.72;;;22.38;;
3696;SDS011;60662;48.810;8.872;2023-05-02T11:37:31;38.10;;;24.23;;
3696;SDS011;60662;48.810;8.872;2023-05-02T11:38:36;34.65;;;23.80;;
3696;SDS011;60662;48.810;8.872;2023-05-02T11:39:39;30.08;;;21.35;;
3696;SDS011;60662;48.810;8.872;2023-05-02T11:40:48;29.85;;;21.00;;
3696;SDS011;60662;48.810;8.872;2023-05-02T11:41:51;32.75;;;23.42;;
3696;SDS011;60662;48.810;8.872;2023-05-02T11:42:55;34.30;;;23.00;;
3696;SDS011;60662;48.810;8.872;2023-05-02T11:44:03;36.33;;;23.60;;
3696;SDS011;60662;48.810;8.872;2023-05-02T11:45:05;36.88;;;24.40;;
3696;SDS011;60662;48.810;8.872;2023-05-02T11:46:07;32.72;;;23.00;;
3696;SDS011;60662;48.810;8.872;2023-05-02T11:47:09;32.47;;;22.90;;
3696;SDS011;60662;48.810;8.872;2023-05-02T11:48:11;35.20;;;23.23;;
3696;SDS011;60662;48.810;8.872;2023-05-02T11:49:14;30.08;;;21.55;;
3696;SDS011;60662;48.810;8.872;2023-05-02T11:50:16;27.80;;;21.65;;
3696;SDS011;60662;48.810;8.872;2023-05-02T11:51:21;31.63;;;22.77;;
3696;SDS011;60662;48.810;8.872;2023-05-02T11:52:23;36.70;;;22.85;;
3696;SDS011;60662;48.810;8.872;2023-05-02T11:53:26;36.10;;;23.75;;
3696;SDS011;60662;48.810;8.872;2023-05-02T11:54:29;32.65;;;24.95;;
3696;SDS011;60662;48.810;8.872;2023-05-02T11:55:31;37.08;;;24.58;;
3696;SDS011;60662;48.810;8.872;2023-05-02T11:56:32;38.78;;;26.15;;
3696;SDS011;60662;48.810;8.872;2023-05-02T11:57:34;37.22;;;24.33;;
3696;SDS011;60662;48.810;8.872;2023-05-02T11:58:35;30.00;;;22.60;;
3696;SDS011;60662;48.810;8.872;2023-05-02T11:59:52;36.22;;;25.50;;
3696;SDS011;60662;48.810;8.872;2023-05-02T12:00:55;40.38;;;25.70;;
3696;SDS011;60662;48.810;8.872;2023-05-02T12:01:57;32.63;;;23.00;;
3696;SDS011;60662;48.810;8.872;2023-05-02T12:02:58;34.95;;;21.80;;
3696;SDS011;60662;48.810;8.872;2023-05-02T12:04:00;33.25;;;22.50;;
3696;SDS011;60662;48.810;8.872;2023-05-02T12:05:08;33.03;;;23.00;;
3696;SDS011;60662;48.810;8.872;2023-05-02T12:06:12;31.20;;;22.25;;
3696;SDS011;60662;48.810;8.872;2023-05-02T12:07:19;31.17;;;21.83;;
3696;SDS011;60662;48.810;8.872;2023-05-02T12:08:34;37.20;;;24.35;;
3696;SDS011;60662;48.810;8.872;2023-05-02T12:09:48;39.63;;;24.10;;
3696;SDS011;60662;48.810;8.872;2023-05-02T12:10:54;35.10;;;23.58;;
3696;SDS011;60662;48.810;8.872;2023-05-02T12:11:57;31.75;;;23.25;;
3696;SDS011;60662;48.810;8.872;2023-05-02T12:13:02;32.10;;;23.88;;
3696;SDS011;60662;48.810;8.872;2023-05-02T12:14:04;32.47;;;21.77;;
3696;SDS011;60662;48.810;8.872;2023-05-02T12:15:10;33.92;;;23.90;;
3696;SDS011;60662;48.810;8.872;2023-05-02T12:16:13;44.05;;;24.67;;
3696;SDS011;60662;48.810;8.872;2023-05-02T12:17:15;39.05;;;24.50;;
3696;SDS011;60662;48.810;8.872;2023-05-02T12:18:17;37.08;;;25.80;;
3696;SDS011;60662;48.810;8.872;2023-05-02T12:19:22;41.97;;;27.20;;
3696;SDS011;60662;48.810;8.872;2023-05-02T12:20:23;42.15;;;26.02;;
3696;SDS011;60662;48.810;8.872;2023-05-02T12:21:28;30.48;;;22.90;;
3696;SDS011;60662;48.810;8.872;2023-05-02T12:22:30;39.05;;;24.55;;
3696;SDS011;60662;48.810;8.872;2023-05-02T12:23:32;37.92;;;26.35;;
3696;SDS011;60662;48.810;8.872;2023-05-02T12:24:36;37.22;;;26.48;;
3696;SDS011;60662;48.810;8.872;2023-05-02T12:25:41;32.00;;;23.20;;
3696;SDS011;60662;48.810;8.872;2023-05-02T12:26:43;35.80;;;26.17;;
3696;SDS011;60662;48.810;8.872;2023-05-02T12:27:57;38.92;;;26.98;;
3696;SDS011;60662;48.810;8.872;2023-05-02T12:28:59;40.97;;;26.00;;
3696;SDS011;60662;48.810;8.872;2023-05-02T12:30:03;38.63;;;26.70;;
3696;SDS011;60662;48.810;8.872;2023-05-02T12:31:09;32.85;;;24.33;;
3696;SDS011;60662;48.810;8.872;2023-05-02T12:32:11;38.25;;;24.83;;
3696;SDS011;60662;48.810;8.872;2023-05-02T12:33:13;35.53;;;24.83;;
3696;SDS011;60662;48.810;8.872;2023-05-02T12:34:36;40.65;;;24.83;;
3696;SDS011;60662;48.810;8.872;2023-05-02T12:35:38;37.85;;;26.05;;
3696;SDS011;60662;48.810;8.872;2023-05-02T12:36:43;37.92;;;27.00;;
3696;SDS011;60662;48.810;8.872;2023-05-02T12:37:45;33.60;;;24.45;;
3696;SDS011;60662;48.810;8.872;2023-05-02T12:38:51;38.20;;;26.42;;
3696;SDS011;60662;48.810;8.872;2023-05-02T12:39:55;31.90;;;22.23;;
3696;SDS011;60662;48.810;8.872;2023-05-02T12:40:57;34.83;;;21.98;;
3696;SDS011;60662;48.810;8.872;2023-05-02T12:41:58;35.38;;;22.77;;
3696;SDS011;60662;48.810;8.872;2023-05-02T12:43:00;30.17;;;23.55;;
3696;SDS011;60662;48.810;8.872;2023-05-02T12:44:04;33.55;;;23.52;;
3696;SDS011;60662;48.810;8.872;2023-05-02T12:45:16;42.20;;;25.33;;
3696;SDS011;60662;48.810;8.872;2023-05-02T12:46:18;35.85;;;24.20;;
3696;SDS011;60662;48.810;8.872;2023-05-02T12:47:20;37.85;;;23.40;;
3696;SDS011;60662;48.810;8.872;2023-05-02T12:48:23;31.50;;;23.10;;
3696;SDS011;60662;48.810;8.872;2023-05-02T12:49:26;29.40;;;20.05;;
3696;SDS011;60662;48.810;8.872;2023-05-02T12:50:34;33.58;;;22.15;;
3696;SDS011;60662;48.810;8.872;2023-05-02T12:51:38;28.30;;;19.98;;
3696;SDS011;60662;48.810;8.872;2023-05-02T12:52:49;29.65;;;20.98;;
3696;SDS011;60662;48.810;8.872;2023-05-02T12:53:57;28.45;;;20.40;;
3696;SDS011;60662;48.810;8.872;2023-05-02T12:55:17;35.13;;;20.60;;
3696;SDS011;60662;48.810;8.872;2023-05-02T12:56:19;32.10;;;20.15;;
3696;SDS011;60662;48.810;8.872;2023-05-02T12:57:22;30.50;;;19.13;;
3696;SDS011;60662;48.810;8.872;2023-05-02T12:58:24;29.25;;;20.33;;
3696;SDS011;60662;48.810;8.872;2023-05-02T12:59:31;24.63;;;17.63;;
3696;SDS011;60662;48.810;8.872;2023-05-02T13:00:34;26.80;;;19.00;;
3696;SDS011;60662;48.810;8.872;2023-05-02T13:01:39;29.45;;;18.42;;
3696;SDS011;60662;48.810;8.872;2023-05-02T13:02:40;24.33;;;17.23;;
3696;SDS011;60662;48.810;8.872;2023-05-02T13:03:42;24.60;;;17.35;;
3696;SDS011;60662;48.810;8.872;2023-05-02T13:04:44;27.70;;;19.60;;
3696;SDS011;60662;48.810;8.872;2023-05-02T13:05:45;24.10;;;17.40;;
3696;SDS011;60662;48.810;8.872;2023-05-02T13:06:47;27.23;;;18.98;;
3696;SDS011;60662;48.810;8.872;2023-05-02T13:07:48;28.45;;;19.23;;
3696;SDS011;60662;48.810;8.872;2023-05-02T13:08:50;30.35;;;20.48;;
3696;SDS011;60662;48.810;8.872;2023-05-02T13:09:51;31.20;;;19.95;;
3696;SDS011;60662;48.810;8.872;2023-05-02T13:10:53;30.33;;;19.73;;
3696;SDS011;60662;48.810;8.872;2023-05-02T13:11:54;31.40;;;21.17;;
3696;SDS011;60662;48.810;8.872;2023-05-02T13:12:57;30.10;;;18.85;;
3696;SDS011;60662;48.810;8.872;2023-05-02T13:13:58;37.03;;;21.23;;
3696;SDS011;60662;48.810;8.872;2023-05-02T13:15:04;34.15;;;20.67;;
3696;SDS011;60662;48.810;8.872;2023-05-02T13:16:07;31.67;;;21.20;;
3696;SDS011;60662;48.810;8.872;2023-05-02T13:17:09;30.10;;;19.60;;
3696;SDS011;60662;48.810;8.872;2023-05-02T13:18:10;27.77;;;19.50;;
3696;SDS011;60662;48.810;8.872;2023-05-02T13:19:12;26.25;;;19.10;;
3696;SDS011;60662;48.810;8.872;2023-05-02T13:20:13;25.23;;;18.63;;
3696;SDS011;60662;48.810;8.872;2023-05-02T13:21:15;30.70;;;20.52;;
3696;SDS011;60662;48.810;8.872;2023-05-02T13:22:17;29.30;;;18.95;;
3696;SDS011;60662;48.810;8.872;2023-05-02T13:23:18;30.83;;;18.17;;
3696;SDS011;60662;48.810;8.872;2023-05-02T13:24:19;28.73;;;19.45;;
3696;SDS011;60662;48.810;8.872;2023-05-02T13:25:21;29.02;;;20.55;;
3696;SDS011;60662;48.810;8.872;2023-05-02T13:26:22;26.75;;;19.13;;
3696;SDS011;60662;48.810;8.872;2023-05-02T13:27:24;29.63;;;18.95;;
3696;SDS011;60662;48.810;8.872;2023-05-02T13:28:26;30.20;;;19.60;;
3696;SDS011;60662;48.810;8.872;2023-05-02T13:29:29;29.73;;;18.25;;
3696;SDS011;60662;48.810;8.872;2023-05-02T13:30:31;26.77;;;18.42;;
3696;SDS011;60662;48.810;8.872;2023-05-02T13:31:33;30.45;;;19.35;;
3696;SDS011;60662;48.810;8.872;2023-05-02T13:32:34;29.10;;;18.42;;
3696;SDS011;60662;48.810;8.872;2023-05-02T13:33:36;27.45;;;17.40;;
3696;SDS011;60662;48.810;8.872;2023-05-02T13:34:37;23.15;;;16.67;;
3696;SDS011;60662;48.810;8.872;2023-05-02T13:35:39;27.75;;;17.33;;
3696;SDS011;60662;48.810;8.872;2023-05-02T13:36:41;30.35;;;16.75;;
3696;SDS011;60662;48.810;8.872;2023-05-02T13:37:46;20.27;;;15.35;;
3696;SDS011;60662;48.810;8.872;2023-05-02T13:38:48;24.13;;;15.68;;
3696;SDS011;60662;48.810;8.872;2023-05-02T13:39:49;21.50;;;14.65;;
3696;SDS011;60662;48.810;8.872;2023-05-02T13:40:50;23.73;;;15.90;;
3696;SDS011;60662;48.810;8.872;2023-05-02T13:41:52;22.60;;;13.80;;
3696;SDS011;60662;48.810;8.872;2023-05-02T13:42:53;22.88;;;13.95;;
3696;SDS011;60662;48.810;8.872;2023-05-02T13:43:55;20.15;;;12.00;;
3696;SDS011;60662;48.810;8.872;2023-05-02T13:44:56;19.77;;;11.27;;
3696;SDS011;60662;48.810;8.872;2023-05-02T13:45:58;14.70;;;10.95;;
3696;SDS011;60662;48.810;8.872;2023-05-02T13:47:00;19.00;;;12.15;;
3696;SDS011;60662;48.810;8.872;2023-05-02T13:48:02;26.00;;;15.02;;
3696;SDS011;60662;48.810;8.872;2023-05-02T13:49:03;20.40;;;13.10;;
3696;SDS011;60662;48.810;8.872;2023-05-02T13:50:05;18.88;;;13.88;;
3696;SDS011;60662;48.810;8.872;2023-05-02T13:51:07;21.10;;;14.48;;
3696;SDS011;60662;48.810;8.872;2023-05-02T13:52:09;20.27;;;13.48;;
3696;SDS011;60662;48.810;8.872;2023-05-02T13:53:11;22.45;;;12.98;;
3696;SDS011;60662;48.810;8.872;2023-05-02T13:54:12;20.30;;;13.43;;
3696;SDS011;60662;48.810;8.872;2023-05-02T13:55:14;23.70;;;12.73;;
3696;SDS011;60662;48.810;8.872;2023-05-02T13:56:16;19.80;;;13.25;;
3696;SDS011;60662;48.810;8.872;2023-05-02T13:57:17;23.77;;;11.75;;
3696;SDS011;60662;48.810;8.872;2023-05-02T13:58:19;14.40;;;10.68;;
3696;SDS011;60662;48.810;8.872;2023-05-02T13:59:21;17.65;;;11.63;;
3696;SDS011;60662;48.810;8.872;2023-05-02T14:00:22;19.98;;;12.10;;
3696;SDS011;60662;48.810;8.872;2023-05-02T14:01:24;19.52;;;12.05;;
3696;SDS011;60662;48.810;8.872;2023-05-02T14:02:28;19.33;;;12.02;;
3696;SDS011;60662;48.810;8.872;2023-05-02T14:03:30;19.65;;;12.05;;
3696;SDS011;60662;48.810;8.872;2023-05-02T14:04:32;18.40;;;11.80;;
3696;SDS011;60662;48.810;8.872;2023-05-02T14:05:33;14.75;;;9.82;;
3696;SDS011;60662;48.810;8.872;2023-05-02T14:06:36;28.77;;;11.20;;
3696;SDS011;60662;48.810;8.872;2023-05-02T14:07:38;15.90;;;9.88;;
3696;SDS011;60662;48.810;8.872;2023-05-02T14:08:40;14.45;;;9.73;;
3696;SDS011;60662;48.810;8.872;2023-05-02T14:09:41;17.23;;;10.50;;
3696;SDS011;60662;48.810;8.872;2023-05-02T14:10:43;30.65;;;21.05;;
3696;SDS011;60662;48.810;8.872;2023-05-02T14:11:44;26.65;;;17.23;;
3696;SDS011;60662;48.810;8.872;2023-05-02T14:12:47;28.25;;;19.05;;
3696;SDS011;60662;48.810;8.872;2023-05-02T14:13:49;20.33;;;13.30;;
3696;SDS011;60662;48.810;8.872;2023-05-02T14:14:50;22.90;;;14.40;;
3696;SDS011;60662;48.810;8.872;2023-05-02T14:15:52;19.17;;;12.73;;
3696;SDS011;60662;48.810;8.872;2023-05-02T14:16:54;20.02;;;12.68;;
3696;SDS011;60662;48.810;8.872;2023-05-02T14:17:56;22.13;;;12.48;;
3696;SDS011;60662;48.810;8.872;2023-05-02T14:18:57;17.00;;;12.35;;
3696;SDS011;60662;48.810;8.872;2023-05-02T14:19:59;20.10;;;12.38;;
3696;SDS011;60662;48.810;8.872;2023-05-02T14:21:00;21.98;;;12.88;;
3696;SDS011;60662;48.810;8.872;2023-05-02T14:22:03;23.48;;;12.60;;
3696;SDS011;60662;48.810;8.872;2023-05-02T14:23:04;24.23;;;14.07;;
3696;SDS011;60662;48.810;8.872;2023-05-02T14:24:07;20.05;;;13.63;;
3696;SDS011;60662;48.810;8.872;2023-05-02T14:25:09;16.40;;;10.88;;
3696;SDS011;60662;48.810;8.872;2023-05-02T14:26:10;19.92;;;12.63;;
3696;SDS011;60662;48.810;8.872;2023-05-02T14:27:12;19.23;;;12.00;;
3696;SDS011;60662;48.810;8.872;2023-05-02T14:28:18;21.73;;;10.93;;
3696;SDS011;60662;48.810;8.872;2023-05-02T14:29:19;16.67;;;10.18;;
3696;SDS011;60662;48.810;8.872;2023-05-02T14:30:21;27.40;;;11.75;;
3696;SDS011;60662;48.810;8.872;2023-05-02T14:31:22;19.60;;;11.70;;
3696;SDS011;60662;48.810;8.872;2023-05-02T14:32:24;22.73;;;10.68;;
3696;SDS011;60662;48.810;8.872;2023-05-02T14:33:25;15.70;;;10.98;;
3696;SDS011;60662;48.810;8.872;2023-05-02T14:34:27;18.38;;;11.68;;
3696;SDS011;60662;48.810;8.872;2023-05-02T14:35:29;20.98;;;12.65;;
3696;SDS011;60662;48.810;8.872;2023-05-02T14:36:30;15.30;;;11.05;;
3696;SDS011;60662;48.810;8.872;2023-05-02T14:37:32;24.48;;;12.40;;
3696;SDS011;60662;48.810;8.872;2023-05-02T14:38:34;20.00;;;12.30;;
3696;SDS011;60662;48.810;8.872;2023-05-02T14:39:35;20.42;;;13.50;;
3696;SDS011;60662;48.810;8.872;2023-05-02T14:40:37;19.67;;;12.73;;
3696;SDS011;60662;48.810;8.872;2023-05-02T14:41:38;19.98;;;12.02;;
3696;SDS011;60662;48.810;8.872;2023-05-02T14:42:40;20.20;;;11.45;;
3696;SDS011;60662;48.810;8.872;2023-05-02T14:43:42;17.25;;;11.05;;
3696;SDS011;60662;48.810;8.872;2023-05-02T14:44:43;21.70;;;11.68;;
3696;SDS011;60662;48.810;8.872;2023-05-02T14:45:44;18.58;;;11.90;;
3696;SDS011;60662;48.810;8.872;2023-05-02T14:46:46;20.15;;;12.10;;
3696;SDS011;60662;48.810;8.872;2023-05-02T14:47:48;22.70;;;11.38;;
3696;SDS011;60662;48.810;8.872;2023-05-02T14:48:50;16.80;;;11.10;;
3696;SDS011;60662;48.810;8.872;2023-05-02T14:49:51;19.67;;;10.82;;
3696;SDS011;60662;48.810;8.872;2023-05-02T14:50:53;15.32;;;10.02;;
3696;SDS011;60662;48.810;8.872;2023-05-02T14:51:54;17.05;;;10.00;;
3696;SDS011;60662;48.810;8.872;2023-05-02T14:52:58;16.90;;;10.50;;
3696;SDS011;60662;48.810;8.872;2023-05-02T14:54:00;14.60;;;8.55;;
3696;SDS011;60662;48.810;8.872;2023-05-02T14:55:01;16.88;;;10.00;;
3696;SDS011;60662;48.810;8.872;2023-05-02T14:56:03;15.63;;;9.93;;
3696;SDS011;60662;48.810;8.872;2023-05-02T14:57:04;17.05;;;11.57;;
3696;SDS011;60662;48.810;8.872;2023-05-02T14:58:07;19.67;;;11.57;;
3696;SDS011;60662;48.810;8.872;2023-05-02T14:59:10;15.32;;;10.25;;
3696;SDS011;60662;48.810;8.872;2023-05-02T15:00:11;16.42;;;10.57;;
3696;SDS011;60662;48.810;8.872;2023-05-02T15:01:14;20.17;;;10.30;;
3696;SDS011;60662;48.810;8.872;2023-05-02T15:02:19;14.95;;;9.18;;
3696;SDS011;60662;48.810;8.872;2023-05-02T15:03:22;21.27;;;9.50;;
3696;SDS011;60662;48.810;8.872;2023-05-02T15:04:23;14.98;;;9.40;;
3696;SDS011;60662;48.810;8.872;2023-05-02T15:05:27;13.95;;;8.20;;
3696;SDS011;60662;48.810;8.872;2023-05-02T15:06:30;13.20;;;8.88;;